createdAt,value
2023-04-01T00:00:59.390Z,1.00
2023-04-01T00:03:27.926Z,0.87
2023-04-01T00:05:56.117Z,0.97
2023-04-01T00:08:24.990Z,0.87
2023-04-01T00:10:52.614Z,0.87
2023-04-01T00:13:20.644Z,1.20
2023-04-01T00:15:48.445Z,0.90
2023-04-01T00:18:16.499Z,0.90
2023-04-01T00:20:45.322Z,0.97
2023-04-01T00:23:12.697Z,0.87
2023-04-01T00:25:41.541Z,0.80
2023-04-01T00:28:08.944Z,0.90
2023-04-01T00:30:37.457Z,0.87
2023-04-01T00:33:05.006Z,0.77
2023-04-01T00:35:33.432Z,0.90
2023-04-01T00:38:01.335Z,0.90
2023-04-01T00:40:29.973Z,0.63
2023-04-01T00:42:59.110Z,0.80
2023-04-01T00:45:34.593Z,0.80
2023-04-01T00:48:03.943Z,0.60
2023-04-01T00:50:32.457Z,1.00
2023-04-01T00:53:00.933Z,0.80
2023-04-01T00:55:29.389Z,0.80
2023-04-01T00:57:57.910Z,0.70
2023-04-01T01:00:27.314Z,0.80
2023-04-01T01:02:54.773Z,0.60
2023-04-01T01:05:26.317Z,1.00
2023-04-01T01:08:00.254Z,0.80
2023-04-01T01:10:31.736Z,0.70
2023-04-01T01:13:04.511Z,1.20
2023-04-01T01:15:38.031Z,0.80
2023-04-01T01:18:08.577Z,0.77
2023-04-01T01:20:44.736Z,0.73
2023-04-01T01:23:23.082Z,0.80
2023-04-01T01:25:55.789Z,0.70
2023-04-01T01:28:31.000Z,0.80
2023-04-01T01:31:04.006Z,0.60
2023-04-01T01:33:54.031Z,0.90
2023-04-01T01:36:23.333Z,0.80
2023-04-01T01:38:52.062Z,0.90
2023-04-01T01:41:20.280Z,0.70
2023-04-01T01:43:49.541Z,0.60
2023-04-01T01:46:19.337Z,0.80
2023-04-01T01:48:47.741Z,0.80
2023-04-01T01:51:15.256Z,0.73
2023-04-01T01:53:43.971Z,0.60
2023-04-01T01:56:13.532Z,0.60
2023-04-01T01:58:43.752Z,0.70
2023-04-01T02:01:13.754Z,0.80
2023-04-01T02:03:42.008Z,0.73
2023-04-01T02:06:11.927Z,0.80
2023-04-01T02:08:41.297Z,0.83
2023-04-01T02:11:11.421Z,0.67
2023-04-01T02:13:41.399Z,0.70
2023-04-01T02:16:13.425Z,0.80
2023-04-01T02:18:41.403Z,0.80
2023-04-01T02:21:09.405Z,0.67
2023-04-01T02:23:38.136Z,0.80
2023-04-01T02:26:06.784Z,0.90
2023-04-01T02:28:36.212Z,0.60
2023-04-01T02:31:04.317Z,0.80
2023-04-01T02:33:32.373Z,0.70
2023-04-01T02:35:59.805Z,0.87
2023-04-01T02:38:27.952Z,0.80
2023-04-01T02:40:58.677Z,0.90
2023-04-01T02:43:26.117Z,0.83
2023-04-01T02:45:54.842Z,0.80
2023-04-01T02:48:22.568Z,0.70
2023-04-01T02:50:50.322Z,0.83
2023-04-01T02:53:18.090Z,0.70
2023-04-01T02:55:45.915Z,0.90
2023-04-01T02:58:13.396Z,0.80
2023-04-01T03:00:40.801Z,0.97
2023-04-01T03:03:10.152Z,0.90
2023-04-01T03:05:37.788Z,1.00
2023-04-01T03:08:05.369Z,0.77
2023-04-01T03:10:32.748Z,0.73
2023-04-01T03:13:00.167Z,1.10
2023-04-01T03:15:27.564Z,0.70
2023-04-01T03:17:55.003Z,0.90
2023-04-01T03:20:23.735Z,1.13
2023-04-01T03:22:51.072Z,0.77
2023-04-01T03:25:18.480Z,0.70
2023-04-01T03:27:45.814Z,0.63
2023-04-01T03:30:13.379Z,0.80
2023-04-01T03:32:40.898Z,0.80
2023-04-01T03:35:10.586Z,0.80
2023-04-01T03:37:39.551Z,0.90
2023-04-01T03:40:07.673Z,0.80
2023-04-01T03:42:35.938Z,1.27
2023-04-01T03:45:03.422Z,0.77
2023-04-01T03:47:30.849Z,0.90
2023-04-01T03:49:58.532Z,0.70
2023-04-01T03:52:26.093Z,0.80
2023-04-01T03:54:54.899Z,0.87
2023-04-01T03:57:22.296Z,0.70
2023-04-01T03:59:49.701Z,1.00
2023-04-01T04:02:17.113Z,1.00
2023-04-01T04:04:44.656Z,0.80
2023-04-01T04:07:12.192Z,0.90
2023-04-01T04:09:39.567Z,0.80
2023-04-01T04:12:08.426Z,0.90
2023-04-01T04:14:35.773Z,0.80
2023-04-01T04:17:03.218Z,0.67
2023-04-01T04:19:34.713Z,0.73
2023-04-01T04:22:02.463Z,0.60
2023-04-01T04:24:30.146Z,0.73
2023-04-01T04:26:57.530Z,0.77
2023-04-01T04:29:26.272Z,0.70
2023-04-01T04:31:53.717Z,0.70
2023-04-01T04:34:22.596Z,0.60
2023-04-01T04:36:50.125Z,0.83
2023-04-01T04:39:17.556Z,0.60
2023-04-01T04:41:44.953Z,0.60
2023-04-01T04:44:12.320Z,0.60
2023-04-01T04:46:41.246Z,0.67
2023-04-01T04:49:09.243Z,0.70
2023-04-01T04:51:36.897Z,0.97
2023-04-01T04:54:04.772Z,0.80
2023-04-01T04:56:32.683Z,0.50
2023-04-01T04:59:00.480Z,0.60
2023-04-01T05:01:28.128Z,0.60
2023-04-01T05:03:56.912Z,0.70
2023-04-01T05:06:26.523Z,0.73
2023-04-01T05:08:53.894Z,0.73
2023-04-01T05:11:21.564Z,0.60
2023-04-01T05:13:49.262Z,0.50
2023-04-01T05:16:18.052Z,0.90
2023-04-01T05:18:45.515Z,0.73
2023-04-01T05:21:16.335Z,0.50
2023-04-01T05:23:44.088Z,0.80
2023-04-01T05:26:12.686Z,0.70
2023-04-01T05:28:40.558Z,0.77
2023-04-01T05:31:08.345Z,0.73
2023-04-01T05:33:36.197Z,0.80
2023-04-01T05:36:10.801Z,0.80
2023-04-01T05:38:39.853Z,0.60
2023-04-01T05:41:07.389Z,0.80
2023-04-01T05:43:37.300Z,0.80
2023-04-01T05:46:04.717Z,0.90
2023-04-01T05:48:32.114Z,1.00
2023-04-01T05:50:59.581Z,0.73
2023-04-01T05:53:26.968Z,0.60
2023-04-01T05:55:55.735Z,1.00
2023-04-01T05:58:23.093Z,0.60
2023-04-01T06:01:02.301Z,0.50
2023-04-01T06:03:36.248Z,0.80
2023-04-01T06:06:03.845Z,0.80
2023-04-01T06:08:32.248Z,0.93
2023-04-01T06:11:15.461Z,0.80
2023-04-01T06:13:54.580Z,0.90
2023-04-01T06:16:25.744Z,0.80
2023-04-01T06:18:58.254Z,0.60
2023-04-01T06:21:46.480Z,0.60
2023-04-01T06:24:21.790Z,0.93
2023-04-01T06:26:54.790Z,0.50
2023-04-01T06:29:29.773Z,0.70
2023-04-01T06:32:15.202Z,0.60
2023-04-01T06:34:53.800Z,0.80
2023-04-01T06:37:37.191Z,0.80
2023-04-01T06:40:15.417Z,0.60
2023-04-01T06:42:58.585Z,0.90
2023-04-01T06:45:32.004Z,0.90
2023-04-01T06:48:05.979Z,0.90
2023-04-01T06:50:39.084Z,0.77
2023-04-01T06:53:09.488Z,0.60
2023-04-01T06:55:41.514Z,0.40
2023-04-01T06:58:15.674Z,0.50
2023-04-01T07:00:45.331Z,0.50
2023-04-01T07:03:18.699Z,0.70
2023-04-01T07:05:46.206Z,0.60
2023-04-01T07:08:14.514Z,0.60
2023-04-01T07:10:45.183Z,0.80
2023-04-01T07:13:16.738Z,0.60
2023-04-01T07:15:46.216Z,0.60
2023-04-01T07:18:17.192Z,0.70
2023-04-01T07:20:44.824Z,0.90
2023-04-01T07:23:17.448Z,0.80
2023-04-01T07:25:46.029Z,0.80
2023-04-01T07:28:15.677Z,0.80
2023-04-01T07:30:48.955Z,0.60
2023-04-01T07:33:18.649Z,0.63
2023-04-01T07:35:48.671Z,0.70
2023-04-01T07:38:21.640Z,0.60
2023-04-01T07:40:51.186Z,0.50
2023-04-01T07:43:39.365Z,0.57
2023-04-01T07:46:14.461Z,0.73
2023-04-01T07:48:45.889Z,0.50
2023-04-01T07:51:17.120Z,0.50
2023-04-01T07:53:48.376Z,0.70
2023-04-01T07:56:19.128Z,0.60
2023-04-01T07:58:52.830Z,0.60
2023-04-01T08:01:26.326Z,0.57
2023-04-01T08:04:01.487Z,0.40
2023-04-01T08:06:33.395Z,0.60
2023-04-01T08:09:06.258Z,0.63
2023-04-01T08:11:43.591Z,0.60
2023-04-01T08:14:14.641Z,0.60
2023-04-01T08:16:48.535Z,0.57
2023-04-01T08:19:20.228Z,0.80
2023-04-01T08:21:49.614Z,0.53
2023-04-01T08:24:21.500Z,0.50
2023-04-01T08:26:52.224Z,0.60
2023-04-01T08:29:22.448Z,0.40
2023-04-01T08:31:54.334Z,0.57
2023-04-01T08:34:24.430Z,0.50
2023-04-01T08:36:55.194Z,0.70
2023-04-01T08:39:27.709Z,1.00
2023-04-01T08:42:03.885Z,1.00
2023-04-01T08:44:39.131Z,1.20
2023-04-01T08:47:30.465Z,1.33
2023-04-01T08:50:20.634Z,1.80
2023-04-01T08:52:50.881Z,0.80
2023-04-01T08:55:25.379Z,0.50
2023-04-01T08:57:58.677Z,0.50
2023-04-01T09:00:29.702Z,0.50
2023-04-01T09:03:02.412Z,0.60
2023-04-01T09:05:38.226Z,0.50
2023-04-01T09:08:10.924Z,0.57
2023-04-01T09:10:51.799Z,0.60
2023-04-01T09:13:33.958Z,0.90
2023-04-01T09:16:11.129Z,1.00
2023-04-01T09:18:47.750Z,1.20
2023-04-01T09:21:32.818Z,0.50
2023-04-01T09:24:08.152Z,0.50
2023-04-01T09:26:42.998Z,0.60
2023-04-01T09:29:17.962Z,0.67
2023-04-01T09:32:09.532Z,0.70
2023-04-01T09:34:46.882Z,0.80
2023-04-01T09:37:22.692Z,0.67
2023-04-01T09:40:04.262Z,0.40
2023-04-01T09:42:52.858Z,0.57
2023-04-01T09:45:29.422Z,0.53
2023-04-01T09:48:02.953Z,0.73
2023-04-01T09:50:41.414Z,0.70
2023-04-01T09:53:14.994Z,0.23
2023-04-01T09:55:59.979Z,0.50
2023-04-01T09:58:35.852Z,0.40
2023-04-01T10:01:19.044Z,0.50
2023-04-01T10:04:05.309Z,0.50
2023-04-01T10:06:52.074Z,0.40
2023-04-01T10:09:42.269Z,0.97
2023-04-01T10:12:32.452Z,0.30
2023-04-01T10:15:23.941Z,0.47
2023-04-01T10:18:13.020Z,0.40
2023-04-01T10:20:58.889Z,0.57
2023-04-01T10:23:33.747Z,0.60
2023-04-01T10:26:10.053Z,0.50
2023-04-01T10:28:53.008Z,0.40
2023-04-01T10:31:28.945Z,0.70
2023-04-01T10:34:21.837Z,0.30
2023-04-01T10:36:56.986Z,0.40
2023-04-01T10:39:34.943Z,0.60
2023-04-01T10:42:20.825Z,0.40
2023-04-01T10:45:15.809Z,0.40
2023-04-01T10:48:00.808Z,0.40
2023-04-01T10:50:38.789Z,0.30
2023-04-01T10:53:20.225Z,0.40
2023-04-01T10:56:12.742Z,0.30
2023-04-01T10:58:58.936Z,0.30
2023-04-01T11:01:44.190Z,0.40
2023-04-01T11:04:31.209Z,0.40
2023-04-01T11:07:19.625Z,0.47
2023-04-01T11:10:17.542Z,0.40
2023-04-01T11:13:04.905Z,0.50
2023-04-01T11:15:41.519Z,0.50
2023-04-01T11:18:29.695Z,0.40
2023-04-01T11:21:08.886Z,0.30
2023-04-01T11:24:04.512Z,0.40
2023-04-01T11:26:35.647Z,0.40
2023-04-01T11:29:20.531Z,0.40
2023-04-01T11:31:56.750Z,0.30
2023-04-01T11:34:39.006Z,0.30
2023-04-01T11:37:12.004Z,0.30
2023-04-01T11:39:44.199Z,0.60
2023-04-01T11:42:17.038Z,0.30
2023-04-01T11:44:48.282Z,0.40
2023-04-01T11:47:26.543Z,0.30
2023-04-01T11:49:57.657Z,0.20
2023-04-01T11:52:37.475Z,0.20
2023-04-01T11:55:14.543Z,0.30
2023-04-01T11:57:59.804Z,0.30
2023-04-01T12:00:36.093Z,0.20
2023-04-01T12:03:12.827Z,0.40
2023-04-01T12:05:44.112Z,0.30
2023-04-01T12:08:22.351Z,0.40
2023-04-01T12:10:54.408Z,0.38
2023-04-01T12:13:29.957Z,0.60
2023-04-01T12:16:02.441Z,0.50
2023-04-01T12:18:35.376Z,0.40
2023-04-01T12:21:06.243Z,0.30
2023-04-01T12:23:42.404Z,0.20
2023-04-01T12:26:18.137Z,0.30
2023-04-01T12:28:51.240Z,0.40
2023-04-01T12:31:29.772Z,0.33
2023-04-01T12:34:02.837Z,0.40
2023-04-01T12:36:37.272Z,0.45
2023-04-01T12:39:20.028Z,0.40
2023-04-01T12:41:50.779Z,0.30
2023-04-01T12:44:42.847Z,0.30
2023-04-01T12:47:17.760Z,0.30
2023-04-01T12:49:57.336Z,0.55
2023-04-01T12:52:29.391Z,0.40
2023-04-01T12:55:10.505Z,0.45
2023-04-01T12:57:55.737Z,0.40
2023-04-01T13:00:31.753Z,0.40
2023-04-01T13:03:06.553Z,0.22
2023-04-01T13:05:44.420Z,0.25
2023-04-01T13:08:18.060Z,0.30
2023-04-01T13:10:53.466Z,0.40
2023-04-01T13:13:33.196Z,0.40
2023-04-01T13:16:04.084Z,1.85
2023-04-01T13:18:35.017Z,2.20
2023-04-01T13:21:08.077Z,1.95
2023-04-01T13:23:39.513Z,0.40
2023-04-01T13:26:15.410Z,0.55
2023-04-01T13:28:45.846Z,0.60
2023-04-01T13:31:20.963Z,0.80
2023-04-01T13:33:52.198Z,0.50
2023-04-01T13:36:25.390Z,0.32
2023-04-01T13:39:08.761Z,0.80
2023-04-01T13:41:45.681Z,0.82
2023-04-01T13:44:16.097Z,0.93
2023-04-01T13:46:56.620Z,0.60
2023-04-01T13:49:37.210Z,0.50
2023-04-01T13:52:09.374Z,0.40
2023-04-01T13:54:53.245Z,0.65
2023-04-01T13:57:28.347Z,0.55
2023-04-01T14:00:08.079Z,0.40
2023-04-01T14:02:46.571Z,0.50
2023-04-01T14:05:41.946Z,0.40
2023-04-01T14:08:15.935Z,1.10
2023-04-01T14:10:45.485Z,0.60
2023-04-01T14:13:19.798Z,0.50
2023-04-01T14:16:06.742Z,0.90
2023-04-01T14:18:56.228Z,0.70
2023-04-01T14:21:28.868Z,1.45
2023-04-01T14:24:14.700Z,0.90
2023-04-01T14:27:00.255Z,0.30
2023-04-01T14:29:34.432Z,0.30
2023-04-01T14:32:07.985Z,0.55
2023-04-01T14:34:44.585Z,0.50
2023-04-01T14:37:25.002Z,0.30
2023-04-01T14:40:05.379Z,0.50
2023-04-01T14:42:43.584Z,0.40
2023-04-01T14:45:26.001Z,0.70
2023-04-01T14:47:56.559Z,0.40
2023-04-01T14:50:25.542Z,0.38
2023-04-01T14:52:58.811Z,0.80
2023-04-01T14:55:32.009Z,1.52
2023-04-01T14:58:01.183Z,0.75
2023-04-01T15:00:28.672Z,1.65
2023-04-01T15:03:02.350Z,0.88
2023-04-01T15:05:34.897Z,1.02
2023-04-01T15:08:09.983Z,0.40
2023-04-01T15:10:52.293Z,0.47
2023-04-01T15:13:24.746Z,0.40
2023-04-01T15:16:00.761Z,0.25
2023-04-01T15:18:34.031Z,0.30
2023-04-01T15:21:09.122Z,0.40
2023-04-01T15:23:42.564Z,0.50
2023-04-01T15:26:22.144Z,0.30
2023-04-01T15:28:54.708Z,0.50
2023-04-01T15:31:24.788Z,0.47
2023-04-01T15:34:03.414Z,0.28
2023-04-01T15:36:34.950Z,0.40
2023-04-01T15:39:07.563Z,0.30
2023-04-01T15:41:38.640Z,0.30
2023-04-01T15:44:06.368Z,0.35
2023-04-01T15:46:43.899Z,0.30
2023-04-01T15:49:18.190Z,0.50
2023-04-01T15:51:50.639Z,0.30
2023-04-01T15:54:26.063Z,0.57
2023-04-01T15:56:58.032Z,1.00
2023-04-01T15:59:34.082Z,1.00
2023-04-01T16:02:03.110Z,1.73
2023-04-01T16:04:42.421Z,1.58
2023-04-01T16:07:12.594Z,0.90
2023-04-01T16:09:50.091Z,0.60
2023-04-01T16:12:20.726Z,0.65
2023-04-01T16:14:57.507Z,0.65
2023-04-01T16:17:32.155Z,1.50
2023-04-01T16:20:03.851Z,0.60
2023-04-01T16:22:34.459Z,1.42
2023-04-01T16:25:07.836Z,1.98
2023-04-01T16:27:38.783Z,1.75
2023-04-01T16:30:25.777Z,1.92
2023-04-01T16:32:55.784Z,1.70
2023-04-01T16:35:32.433Z,0.93
2023-04-01T16:38:03.259Z,0.97
2023-04-01T16:40:41.053Z,2.90
2023-04-01T16:43:12.978Z,2.80
2023-04-01T16:45:44.302Z,1.92
2023-04-01T16:48:13.997Z,2.10
2023-04-01T16:50:47.661Z,1.80
2023-04-01T16:53:19.277Z,1.60
2023-04-01T16:55:50.913Z,3.20
2023-04-01T16:58:22.536Z,1.57
2023-04-01T17:00:52.787Z,3.70
2023-04-01T17:03:24.348Z,3.73
2023-04-01T17:05:59.884Z,3.23
2023-04-01T17:08:46.523Z,1.03
2023-04-01T17:11:19.773Z,1.23
2023-04-01T17:13:58.725Z,0.90
2023-04-01T17:16:30.215Z,0.70
2023-04-01T17:19:03.310Z,2.83
2023-04-01T17:21:36.006Z,1.33
2023-04-01T17:24:09.254Z,0.80
2023-04-01T17:26:42.737Z,0.60
2023-04-01T17:29:17.514Z,0.50
2023-04-01T17:31:47.899Z,0.70
2023-04-01T17:34:23.488Z,7.50
2023-04-01T17:37:01.576Z,4.47
2023-04-01T17:39:37.462Z,3.87
2023-04-01T17:42:08.002Z,2.97
2023-04-01T17:44:50.281Z,2.80
2023-04-01T17:47:26.996Z,3.10
2023-04-01T17:49:58.802Z,3.20
2023-04-01T17:52:30.899Z,4.37
2023-04-01T17:55:00.994Z,1.60
2023-04-01T17:57:32.992Z,4.00
2023-04-01T18:00:04.424Z,2.50
2023-04-01T18:02:36.702Z,4.13
2023-04-01T18:05:13.518Z,6.53
2023-04-01T18:07:48.002Z,7.30
2023-04-01T18:10:25.798Z,4.10
2023-04-01T18:13:03.045Z,3.07
2023-04-01T18:15:33.584Z,2.37
2023-04-01T18:18:07.888Z,3.17
2023-04-01T18:20:39.898Z,2.80
2023-04-01T18:23:21.147Z,3.37
2023-04-01T18:25:50.081Z,6.10
2023-04-01T18:28:20.911Z,5.10
2023-04-01T18:30:53.402Z,4.10
2023-04-01T18:33:25.211Z,5.43
2023-04-01T18:35:54.522Z,2.70
2023-04-01T18:38:27.764Z,15.57
2023-04-01T18:40:59.570Z,2.73
2023-04-01T18:43:38.514Z,3.73
2023-04-01T18:46:10.364Z,6.77
2023-04-01T18:48:45.056Z,6.70
2023-04-01T18:51:15.646Z,4.37
2023-04-01T18:53:48.048Z,5.37
2023-04-01T18:56:17.188Z,3.80
2023-04-01T18:58:49.117Z,4.13
2023-04-01T19:01:19.441Z,3.87
2023-04-01T19:03:53.842Z,2.97
2023-04-01T19:06:24.931Z,5.60
2023-04-01T19:08:54.375Z,6.53
2023-04-01T19:11:28.223Z,9.07
2023-04-01T19:14:01.934Z,4.80
2023-04-01T19:16:37.667Z,6.83
2023-04-01T19:19:12.629Z,5.47
2023-04-01T19:21:44.361Z,5.77
2023-04-01T19:24:26.767Z,4.00
2023-04-01T19:26:59.647Z,4.33
2023-04-01T19:29:34.871Z,4.60
2023-04-01T19:32:06.204Z,4.23
2023-04-01T19:34:38.752Z,3.70
2023-04-01T19:37:10.360Z,4.07
2023-04-01T19:39:44.507Z,4.13
2023-04-01T19:42:18.451Z,4.27
2023-04-01T19:44:52.528Z,4.10
2023-04-01T19:47:23.492Z,5.07
2023-04-01T19:49:54.624Z,4.83
2023-04-01T19:52:25.456Z,4.37
2023-04-01T19:54:58.420Z,5.20
2023-04-01T19:57:30.320Z,5.37
2023-04-01T20:00:00.581Z,5.53
2023-04-01T20:02:35.480Z,4.77
2023-04-01T20:05:06.368Z,4.23
2023-04-01T20:07:36.918Z,4.47
2023-04-01T20:10:10.935Z,4.37
2023-04-01T20:12:44.410Z,4.50
2023-04-01T20:15:23.511Z,4.60
2023-04-01T20:17:52.999Z,4.77
2023-04-01T20:20:22.177Z,5.97
2023-04-01T20:23:07.093Z,8.40
2023-04-01T20:25:41.592Z,4.60
2023-04-01T20:28:13.882Z,3.20
2023-04-01T20:30:56.565Z,2.70
2023-04-01T20:33:34.058Z,1.40
2023-04-01T20:36:07.927Z,1.20
2023-04-01T20:38:50.319Z,1.30
2023-04-01T20:41:24.037Z,1.13
2023-04-01T20:43:54.946Z,1.30
2023-04-01T20:46:24.910Z,1.20
2023-04-01T20:49:02.468Z,1.53
2023-04-01T20:51:32.106Z,1.27
2023-04-01T20:54:05.747Z,1.40
2023-04-01T20:56:39.933Z,1.43
2023-04-01T20:59:14.838Z,1.50
2023-04-01T21:01:46.960Z,1.43
2023-04-01T21:04:22.874Z,1.40
2023-04-01T21:06:54.782Z,1.23
2023-04-01T21:09:39.859Z,1.50
2023-04-01T21:12:15.428Z,1.53
2023-04-01T21:14:50.392Z,1.43
2023-04-01T21:17:24.679Z,1.50
2023-04-01T21:19:57.579Z,1.20
2023-04-01T21:22:31.705Z,1.23
2023-04-01T21:25:03.078Z,1.43
2023-04-01T21:27:37.822Z,1.30
2023-04-01T21:30:14.009Z,1.40
2023-04-01T21:32:48.625Z,1.47
2023-04-01T21:35:22.753Z,1.30
2023-04-01T21:37:57.103Z,2.50
2023-04-01T21:40:33.569Z,1.07
2023-04-01T21:43:07.118Z,0.93
2023-04-01T21:45:42.099Z,0.80
2023-04-01T21:48:19.438Z,1.00
2023-04-01T21:50:50.036Z,0.83
2023-04-01T21:53:33.554Z,0.60
2023-04-01T21:56:25.002Z,0.60
2023-04-01T21:59:07.746Z,0.60
2023-04-01T22:01:47.568Z,0.70
2023-04-01T22:04:26.851Z,0.60
2023-04-01T22:06:57.237Z,0.50
2023-04-01T22:09:30.930Z,0.60
2023-04-01T22:12:02.455Z,0.57
2023-04-01T22:14:33.543Z,1.13
2023-04-01T22:17:04.382Z,0.87
2023-04-01T22:19:36.577Z,0.60
2023-04-01T22:22:07.112Z,1.00
2023-04-01T22:24:41.661Z,0.80
2023-04-01T22:27:12.242Z,2.90
2023-04-01T22:29:44.803Z,1.77
2023-04-01T22:32:14.818Z,0.70
2023-04-01T22:34:45.325Z,1.00
2023-04-01T22:37:15.114Z,1.20
2023-04-01T22:39:51.794Z,0.80
2023-04-01T22:42:38.250Z,0.60
2023-04-01T22:45:17.233Z,0.40
2023-04-01T22:47:50.657Z,0.50
2023-04-01T22:50:21.500Z,0.50
2023-04-01T22:52:50.142Z,0.50
2023-04-01T22:55:19.619Z,0.70
2023-04-01T22:57:49.901Z,0.60
2023-04-01T23:00:21.655Z,0.60
2023-04-01T23:02:50.834Z,0.40
2023-04-01T23:05:20.148Z,0.60
2023-04-01T23:07:51.018Z,0.73
2023-04-01T23:10:22.352Z,0.67
2023-04-01T23:12:51.871Z,0.33
2023-04-01T23:15:21.071Z,0.40
2023-04-01T23:17:58.702Z,0.40
2023-04-01T23:20:30.861Z,0.50
2023-04-01T23:23:07.501Z,0.40
2023-04-01T23:25:39.088Z,0.30
2023-04-01T23:28:20.898Z,0.30
2023-04-01T23:30:50.854Z,0.60
2023-04-01T23:33:22.803Z,0.40
2023-04-01T23:35:51.024Z,0.40
2023-04-01T23:38:19.265Z,0.40
2023-04-01T23:40:49.006Z,0.40
2023-04-01T23:43:16.805Z,0.37
2023-04-01T23:45:44.586Z,0.40
2023-04-01T23:48:16.882Z,0.50
2023-04-01T23:50:45.194Z,0.50
2023-04-01T23:53:18.334Z,0.40
2023-04-01T23:55:46.023Z,0.33
2023-04-01T23:58:20.500Z,0.50
